Cleveland, MS (38733)

9:49 PM CDT on April 30, 2017 (GMT -0500)
Cleveland | | Change Station
Active Advisory: Flood Warning

Elev 128 ft 33.70 °N, 90.75 °W | Updated 8 seconds ago

Clear
Clear
61.2 °F
Feels Like 61.2 °F
N
4.5
Wind Variable Wind from South
Gusts 7.4 mph

Today
High -- | Low -- °F
--% Chance of Precip.
Yesterday
High -- | Low -- °F
Precip. -- in
Pressure 29.83 in
Visibility 10.0 miles
Clouds Clear
Dew Point 53 °F
Humidity 75%
Rainfall 0.89 in
Snow Depth Not available.
6:14 AM 7:45 PM
Waxing Crescent, 28% visible
METAR KRNV 010235Z AUTO 24006KT 10SM CLR 16/13 A2983 RMK AO2 T01560134
Pressure 29.83 in
Visibility 10.0 miles
Clouds Clear
Dew Point 53 °F
Humidity 75%
Rainfall 0.89 in
Snow Depth Not available.
6:14 AM 7:45 PM
Waxing Crescent, 28% visible
METAR KRNV 010235Z AUTO 24006KT 10SM CLR 16/13 A2983 RMK AO2 T01560134

Get Your Daily Forecast Email!

Thanks for signing up!

Be on the lookout for a verification email in your inbox.

You'll start receiving severe weather alerts in your inbox..

×

10-Day Weather Forecast

Almanac

Astronomy

Apr. 30, 2017 Rise Set
Actual Time
Civil Twilight
Nautical Twilight
Astronomical Twilight
Moon
Length of Visible Light
Length of Day
Tomorrow will be .
, % of the Moon is Illuminated

Today's Extremes

State Highs State Lows

Community

WunderPhotos

WunderBlog® & News

Nearby

Air Quality

  Air Quality AQ Index Pollutant
Not available.

Snow Depth

Station Depth Elevation

Earthquake Activity

City Distance Mag. Time & Date
Minimum magnitude displayed is 2.5.

Coastal Water Temperatures

Place Temperature

Stations

Nearby Weather Stations

Station Location Temp. Windchill Dew Point Humidity Wind Precip. Elev Updated Type
                   

Watches & Warnings

Flood Warning
Issued: 1:31 PM CDT Apr. 30, 2017 – National Weather Service

... Flood Warning extended until Wednesday may 17...

The Flood Warning continues for
the Mississippi River near Arkansas City
* from Monday may 08 to Wednesday may 17.
* At 1:00 PM Sunday the stage was 28.5 feet.
* Minor flooding is forecast.
* Flood stage is 37.0 feet.
* Forecast... heavier rainfall than forecast across Missouri and Illinois
has produced a higher River Crest. The river will rise above flood stage Monday
may 08 and will continue to rise to near 39.0 feet Saturday may 13.
* Flood history... this crest compares to a previous crest of 38.2 feet
on Jul 21 2015.
* Impact... at 37.0 feet... the low Silt plain in front of Arkansas City
inside the levee system begins to flood along with widespread
bottomland flooding at Huntington Point Mississippi.
* Impact... at 35.0 feet... the Road to Donaldson Point is cut off.


              Flood observed forecast 6 am crest
location stg stg day time Mon Tue Wed crest time date

Lower Mississippi River
Arkansas City 37 28.5 sun 01 PM 29.6 31.0 32.5 39.0 01 PM 05/13




Lat... Lon 3340 9128 3357 9128 3413 9108 3412 9066
      3358 9106 3340 9105